עמוד ראשי
METAR-TAF:

METAR-TAF

שדות תעופה :

Las Cruces International Airport

Las Cruces, ניו מקסיקו, ארצות הברית

קו רוחב: 32-17-22N, קו אורך: 106-55-19W, גובה: 1358מטר

תצפית מזג אוויר נוכחית

הדו"ח נערך לפני 33דקות, בשעה 08:15 UTC
רוח 8קשר מכיוון מערב
טמפרטורת 23 צלסיוס
לחות 11%
לחץ 1013 hPa
ראות: 16.1קילומטר
שמיים נקיים

METAR: KLRU 160815Z AUTO 26008KT 10SM CLR 23/M09 A2990 RMK AO2 T02291093

זמן: 02:48 (08:48 UTC)

תחזית

הדו"ח נערך לפני 2 שעות ו 51דקות, בשעה 05:57 UTC
תחזית בתוקף מ 16 ב 06 UTC עד 17 ב 06 UTC
רוח 6קשר מכיוון מערב
ראות: 10קילומטר
שמיים נקיים
מ 16 ב 1900UTC
רוח 11קשר מכיוון מערב/דרום-מערב עם משבים עד 19קשר
ראות: 10קילומטר
שמיים נקיים
מ 17 ב 0200UTC
רוח 7קשר מכיוון מערב
ראות: 10קילומטר
שמיים נקיים

TAF: KLRU 160557Z 1606/1706 28006KT P6SM SKC FM161900 24011G19KT P6SM SKC FM170200 26007KT P6SM SKC

תצפיות ותחזיות מזג אוויר לגבי יותר מ- 4,000 שדות תעופה ברחבי העולם. דוחות METAR ו- TAF.

התחנות הזמינות מסומנות בנקודות צהובות ואדומות על גבי המפה.

העבר את העכבר לנקודה הצבעונית על מנת לראות את שם התחנה.

לאחר מכן, לחץ כדי לראות את תוכן ואת תחזיות מזג האוויר.

כדי לשנות את המפה: לחץ על הכפתורים הירוקים עם הפלוס השחור כדי להתקרב; על הכפתור הירוק עם המקף כדי להתרחק; או בחיצים הירוקים למפות סמוכות.


METAR-TAF: